createdAt,value
2023-03-18T00:02:03.313Z,99.90
2023-03-18T00:04:30.799Z,99.90
2023-03-18T00:06:58.116Z,99.90
2023-03-18T00:09:25.300Z,99.90
2023-03-18T00:11:52.657Z,99.90
2023-03-18T00:14:19.716Z,99.90
2023-03-18T00:16:47.083Z,99.90
2023-03-18T00:19:14.366Z,99.90
2023-03-18T00:21:41.279Z,99.90
2023-03-18T00:24:08.333Z,99.90
2023-03-18T00:26:35.713Z,99.90
2023-03-18T00:29:02.859Z,99.90
2023-03-18T00:31:30.163Z,99.90
2023-03-18T00:33:57.157Z,99.90
2023-03-18T00:36:26.324Z,99.90
2023-03-18T00:38:57.835Z,99.90
2023-03-18T00:41:26.755Z,99.90
2023-03-18T00:43:54.309Z,99.90
2023-03-18T00:46:27.068Z,99.90
2023-03-18T00:48:55.886Z,99.90
2023-03-18T00:51:26.062Z,99.90
2023-03-18T00:53:55.468Z,99.90
2023-03-18T00:56:25.712Z,99.90
2023-03-18T00:58:54.010Z,99.90
2023-03-18T01:01:22.474Z,99.90
2023-03-18T01:03:50.231Z,99.90
2023-03-18T01:06:26.655Z,99.90
2023-03-18T01:08:54.269Z,99.90
2023-03-18T01:11:23.024Z,99.90
2023-03-18T01:13:51.056Z,99.90
2023-03-18T01:16:18.097Z,99.90
2023-03-18T01:18:45.757Z,99.90
2023-03-18T01:21:13.629Z,99.90
2023-03-18T01:23:41.099Z,99.90
2023-03-18T01:26:10.863Z,99.90
2023-03-18T01:28:38.296Z,99.90
2023-03-18T01:31:05.653Z,99.90
2023-03-18T01:33:33.385Z,99.90
2023-03-18T01:36:02.466Z,99.90
2023-03-18T01:38:30.413Z,99.90
2023-03-18T01:40:59.565Z,99.90
2023-03-18T01:43:38.887Z,99.90
2023-03-18T01:46:32.697Z,99.90
2023-03-18T01:49:02.761Z,99.90
2023-03-18T01:51:29.807Z,99.90
2023-03-18T01:53:59.311Z,99.90
2023-03-18T01:56:26.624Z,99.90
2023-03-18T01:58:57.648Z,99.90
2023-03-18T02:01:56.650Z,99.90
2023-03-18T02:04:28.965Z,99.90
2023-03-18T02:06:57.359Z,99.90
2023-03-18T02:09:24.436Z,99.90
2023-03-18T02:11:51.877Z,99.90
2023-03-18T02:14:23.792Z,99.90
2023-03-18T02:17:01.123Z,99.90
2023-03-18T02:19:58.516Z,99.90
2023-03-18T02:22:34.321Z,99.90
2023-03-18T02:25:19.429Z,99.90
2023-03-18T02:27:51.008Z,99.90
2023-03-18T02:30:22.794Z,99.90
2023-03-18T02:32:52.008Z,99.90
2023-03-18T02:35:19.172Z,99.90
2023-03-18T02:37:46.488Z,99.90
2023-03-18T02:40:15.684Z,99.90
2023-03-18T02:42:42.785Z,99.90
2023-03-18T02:45:33.568Z,99.90
2023-03-18T02:48:04.061Z,99.90
2023-03-18T02:50:31.379Z,99.90
2023-03-18T02:53:01.150Z,99.90
2023-03-18T02:55:28.182Z,99.90
2023-03-18T02:57:55.113Z,99.90
2023-03-18T03:00:22.375Z,99.90
2023-03-18T03:02:49.374Z,99.90
2023-03-18T03:05:16.565Z,99.90
2023-03-18T03:07:43.483Z,99.90
2023-03-18T03:10:11.477Z,99.90
2023-03-18T03:12:38.476Z,99.90
2023-03-18T03:15:08.088Z,99.90
2023-03-18T03:17:35.812Z,99.90
2023-03-18T03:20:06.431Z,99.90
2023-03-18T03:22:34.402Z,99.90
2023-03-18T03:25:01.740Z,99.90
2023-03-18T03:27:29.575Z,99.90
2023-03-18T03:29:56.514Z,99.90
2023-03-18T03:32:23.566Z,99.90
2023-03-18T03:34:50.764Z,99.90
2023-03-18T03:37:18.162Z,99.90
2023-03-18T03:39:45.532Z,99.90
2023-03-18T03:42:12.498Z,99.90
2023-03-18T03:44:39.526Z,99.90
2023-03-18T03:47:07.492Z,99.90
2023-03-18T03:49:34.615Z,99.90
2023-03-18T03:52:01.600Z,99.90
2023-03-18T03:54:28.634Z,99.90
2023-03-18T03:56:56.173Z,99.90
2023-03-18T03:59:23.275Z,99.90
2023-03-18T04:01:50.286Z,99.90
2023-03-18T04:04:17.321Z,99.90
2023-03-18T04:06:44.445Z,99.90
2023-03-18T04:09:11.355Z,99.90
2023-03-18T04:11:38.484Z,99.90
2023-03-18T04:14:05.490Z,99.90
2023-03-18T04:16:32.674Z,99.90
2023-03-18T04:18:59.716Z,99.90
2023-03-18T04:21:27.286Z,99.90
2023-03-18T04:23:54.279Z,99.90
2023-03-18T04:26:21.316Z,99.90
2023-03-18T04:28:48.485Z,99.90
2023-03-18T04:31:15.653Z,99.90
2023-03-18T04:33:44.896Z,99.90
2023-03-18T04:36:11.983Z,99.90
2023-03-18T04:38:39.437Z,99.90
2023-03-18T04:41:07.101Z,99.90
2023-03-18T04:43:34.196Z,99.90
2023-03-18T04:46:02.034Z,99.90
2023-03-18T04:48:28.979Z,99.90
2023-03-18T04:50:55.987Z,99.90
2023-03-18T04:53:23.074Z,99.90
2023-03-18T04:55:51.725Z,99.90
2023-03-18T04:58:19.038Z,99.90
2023-03-18T05:00:46.141Z,99.90
2023-03-18T05:03:13.303Z,99.90
2023-03-18T05:05:40.288Z,99.90
2023-03-18T05:08:08.110Z,99.90
2023-03-18T05:10:35.299Z,99.90
2023-03-18T05:13:03.740Z,99.90
2023-03-18T05:15:31.059Z,99.90
2023-03-18T05:17:58.870Z,99.90
2023-03-18T05:20:26.012Z,99.90
2023-03-18T05:22:53.347Z,99.90
2023-03-18T05:25:21.422Z,99.90
2023-03-18T05:27:49.715Z,99.90
2023-03-18T05:30:18.028Z,99.90
2023-03-18T05:32:45.298Z,99.90
2023-03-18T05:35:13.399Z,99.90
2023-03-18T05:37:40.362Z,99.90
2023-03-18T05:40:12.073Z,99.90
2023-03-18T05:42:55.085Z,99.90
2023-03-18T05:45:22.767Z,99.90
2023-03-18T05:47:49.779Z,99.90
2023-03-18T05:50:37.923Z,99.90
2023-03-18T05:53:06.109Z,99.90
2023-03-18T05:55:34.645Z,99.90
2023-03-18T05:58:03.217Z,99.90
2023-03-18T06:00:30.926Z,99.90
2023-03-18T06:02:59.713Z,99.90
2023-03-18T06:05:28.775Z,99.90
2023-03-18T06:07:56.051Z,99.90
2023-03-18T06:10:25.285Z,99.90
2023-03-18T06:12:52.777Z,99.90
2023-03-18T06:15:21.524Z,99.90
2023-03-18T06:17:48.802Z,99.90
2023-03-18T06:20:16.426Z,99.90
2023-03-18T06:22:49.049Z,99.90
2023-03-18T06:25:19.079Z,99.90
2023-03-18T06:27:48.033Z,99.90
2023-03-18T06:30:15.751Z,99.90
2023-03-18T06:32:43.279Z,99.90
2023-03-18T06:35:12.233Z,99.90
2023-03-18T06:37:40.217Z,99.90
2023-03-18T06:40:09.328Z,99.90
2023-03-18T06:42:36.713Z,99.90
2023-03-18T06:45:04.245Z,99.90
2023-03-18T06:47:31.408Z,99.90
2023-03-18T06:49:58.524Z,99.90
2023-03-18T06:52:25.560Z,99.90
2023-03-18T06:54:52.574Z,99.90
2023-03-18T06:57:20.480Z,99.90
2023-03-18T06:59:48.145Z,99.90
2023-03-18T07:02:15.705Z,99.90
2023-03-18T07:04:42.906Z,99.90
2023-03-18T07:07:10.052Z,99.90
2023-03-18T07:09:37.024Z,99.90
2023-03-18T07:12:04.076Z,99.90
2023-03-18T07:14:31.100Z,99.90
2023-03-18T07:16:58.219Z,99.90
2023-03-18T07:19:25.211Z,99.90
2023-03-18T07:21:52.404Z,99.90
2023-03-18T07:24:21.834Z,99.90
2023-03-18T07:26:50.676Z,99.90
2023-03-18T07:29:18.522Z,99.90
2023-03-18T07:31:46.237Z,99.90
2023-03-18T07:34:15.283Z,99.90
2023-03-18T07:36:42.808Z,99.90
2023-03-18T07:39:10.331Z,99.90
2023-03-18T07:41:38.177Z,99.90
2023-03-18T07:44:07.847Z,99.90
2023-03-18T07:46:35.046Z,99.90
2023-03-18T07:49:02.334Z,99.90
2023-03-18T07:51:29.629Z,99.90
2023-03-18T07:53:56.714Z,99.90
2023-03-18T07:56:24.335Z,99.90
2023-03-18T07:58:51.830Z,99.90
2023-03-18T08:01:19.574Z,99.90
2023-03-18T08:03:47.190Z,99.90
2023-03-18T08:06:15.866Z,98.20
2023-03-18T08:08:43.774Z,99.20
2023-03-18T08:11:11.463Z,99.50
2023-03-18T08:13:39.631Z,99.90
2023-03-18T08:16:07.107Z,99.90
2023-03-18T08:18:34.409Z,99.90
2023-03-18T08:21:01.923Z,99.90
2023-03-18T08:23:29.376Z,99.90
2023-03-18T08:25:56.401Z,99.90
2023-03-18T08:28:23.854Z,99.90
2023-03-18T08:30:56.041Z,99.90
2023-03-18T08:33:27.164Z,99.90
2023-03-18T08:35:58.096Z,99.90
2023-03-18T08:38:25.743Z,99.90
2023-03-18T08:40:52.723Z,99.90
2023-03-18T08:43:22.404Z,99.90
2023-03-18T08:45:53.996Z,99.90
2023-03-18T08:48:22.173Z,99.90
2023-03-18T08:50:49.823Z,99.90
2023-03-18T08:53:18.038Z,99.90
2023-03-18T08:55:46.539Z,99.90
2023-03-18T08:58:13.590Z,99.90
2023-03-18T09:00:41.884Z,99.90
2023-03-18T09:03:10.268Z,99.90
2023-03-18T09:05:38.671Z,99.90
2023-03-18T09:08:06.698Z,99.90
2023-03-18T09:10:34.333Z,98.90
2023-03-18T09:13:01.489Z,98.60
2023-03-18T09:15:28.580Z,98.40
2023-03-18T09:18:10.270Z,95.50
2023-03-18T09:20:39.022Z,94.20
2023-03-18T09:23:06.451Z,94.60
2023-03-18T09:25:34.483Z,97.10
2023-03-18T09:28:02.177Z,97.40
2023-03-18T09:30:30.225Z,94.50
2023-03-18T09:32:57.605Z,96.20
2023-03-18T09:35:25.198Z,95.70
2023-03-18T09:37:54.087Z,93.00
2023-03-18T09:40:30.749Z,95.90
2023-03-18T09:43:32.747Z,94.30
2023-03-18T09:46:38.638Z,90.70
2023-03-18T09:49:08.469Z,92.60
2023-03-18T09:51:50.820Z,89.90
2023-03-18T09:54:41.434Z,89.10
2023-03-18T09:57:44.206Z,90.60
2023-03-18T10:00:24.489Z,90.90
2023-03-18T10:03:14.571Z,91.10
2023-03-18T10:05:55.423Z,91.20
2023-03-18T10:08:37.161Z,87.60
2023-03-18T10:11:13.358Z,88.20
2023-03-18T10:13:52.822Z,87.20
2023-03-18T10:16:28.239Z,88.00
2023-03-18T10:18:55.783Z,88.80
2023-03-18T10:21:41.197Z,85.20
2023-03-18T10:24:27.003Z,80.80
2023-03-18T10:27:32.313Z,87.00
2023-03-18T10:30:39.164Z,80.60
2023-03-18T10:33:36.971Z,86.20
2023-03-18T10:36:28.840Z,84.30
2023-03-18T10:38:56.858Z,79.30
2023-03-18T10:41:36.665Z,81.30
2023-03-18T10:44:16.003Z,82.00
2023-03-18T10:46:44.465Z,80.50
2023-03-18T10:49:15.133Z,76.10
2023-03-18T10:51:52.505Z,81.10
2023-03-18T10:54:36.750Z,81.50
2023-03-18T10:57:03.788Z,78.60
2023-03-18T10:59:30.939Z,82.70
2023-03-18T11:02:06.831Z,83.80
2023-03-18T11:04:49.941Z,80.30
2023-03-18T11:07:21.733Z,80.30
2023-03-18T11:09:48.739Z,82.30
2023-03-18T11:12:19.320Z,81.60
2023-03-18T11:14:50.661Z,76.70
2023-03-18T11:17:31.252Z,79.40
2023-03-18T11:20:18.079Z,78.80
2023-03-18T11:22:47.568Z,81.20
2023-03-18T11:25:20.865Z,80.50
2023-03-18T11:27:51.286Z,79.30
2023-03-18T11:30:40.631Z,79.20
2023-03-18T11:33:10.748Z,78.20
2023-03-18T11:35:44.552Z,79.80
2023-03-18T11:38:35.151Z,75.40
2023-03-18T11:41:24.715Z,76.50
2023-03-18T11:44:05.561Z,80.00
2023-03-18T11:46:32.428Z,79.10
2023-03-18T11:48:59.529Z,77.60
2023-03-18T11:51:41.287Z,77.10
2023-03-18T11:54:17.296Z,76.20
2023-03-18T11:56:54.113Z,78.30
2023-03-18T11:59:29.197Z,80.30
2023-03-18T12:02:19.279Z,82.80
2023-03-18T12:05:08.709Z,80.80
2023-03-18T12:07:44.965Z,77.10
2023-03-18T12:10:47.260Z,77.00
2023-03-18T12:13:35.716Z,78.90
2023-03-18T12:16:29.220Z,77.60
2023-03-18T12:18:56.491Z,77.90
2023-03-18T12:21:54.524Z,79.30
2023-03-18T12:24:54.764Z,81.10
2023-03-18T12:27:43.238Z,77.10
2023-03-18T12:30:47.402Z,74.50
2023-03-18T12:33:20.069Z,79.60
2023-03-18T12:35:59.691Z,75.80
2023-03-18T12:38:56.741Z,78.60
2023-03-18T12:41:41.815Z,77.60
2023-03-18T12:44:54.620Z,76.30
2023-03-18T12:47:44.120Z,77.00
2023-03-18T12:50:21.201Z,77.10
2023-03-18T12:52:53.609Z,77.00
2023-03-18T12:55:54.131Z,79.10
2023-03-18T12:58:27.933Z,78.30
2023-03-18T13:01:07.920Z,74.80
2023-03-18T13:03:40.366Z,72.50
2023-03-18T13:06:19.293Z,69.50
2023-03-18T13:08:50.069Z,72.80
2023-03-18T13:11:37.453Z,75.40
2023-03-18T13:14:11.469Z,74.50
2023-03-18T13:16:40.013Z,71.00
2023-03-18T13:19:08.989Z,72.70
2023-03-18T13:21:43.439Z,72.60
2023-03-18T13:24:38.961Z,72.90
2023-03-18T13:27:26.686Z,73.90
2023-03-18T13:30:11.707Z,68.40
2023-03-18T13:33:03.086Z,69.80
2023-03-18T13:35:51.552Z,74.20
2023-03-18T13:38:56.710Z,70.50
2023-03-18T13:41:42.449Z,72.10
2023-03-18T13:44:23.403Z,71.90
2023-03-18T13:47:04.089Z,68.70
2023-03-18T13:49:32.701Z,71.30
2023-03-18T13:52:05.346Z,72.10
2023-03-18T13:54:36.702Z,71.00
2023-03-18T13:57:28.482Z,67.70
2023-03-18T14:00:23.659Z,69.40
2023-03-18T14:03:30.633Z,68.00
2023-03-18T14:06:10.197Z,68.50
2023-03-18T14:08:42.462Z,74.40
2023-03-18T14:11:23.065Z,74.50
2023-03-18T14:13:51.937Z,73.60
2023-03-18T14:16:30.059Z,71.00
2023-03-18T14:19:22.186Z,69.80
2023-03-18T14:21:55.166Z,71.40
2023-03-18T14:24:26.621Z,75.10
2023-03-18T14:27:05.158Z,73.40
2023-03-18T14:29:43.838Z,74.10
2023-03-18T14:32:36.825Z,75.10
2023-03-18T14:35:21.263Z,79.70
2023-03-18T14:38:20.428Z,79.20
2023-03-18T14:40:51.632Z,79.80
2023-03-18T14:43:42.417Z,83.50
2023-03-18T14:46:17.817Z,84.80
2023-03-18T14:48:45.257Z,86.30
2023-03-18T14:51:19.428Z,80.10
2023-03-18T14:54:06.474Z,83.30
2023-03-18T14:56:40.630Z,81.00
2023-03-18T14:59:14.734Z,80.30
2023-03-18T15:01:46.138Z,83.10
2023-03-18T15:04:22.140Z,84.50
2023-03-18T15:06:49.812Z,82.60
2023-03-18T15:09:25.681Z,81.80
2023-03-18T15:11:53.957Z,83.30
2023-03-18T15:14:30.300Z,81.60
2023-03-18T15:17:00.991Z,87.60
2023-03-18T15:19:28.877Z,86.00
2023-03-18T15:22:03.666Z,89.50
2023-03-18T15:24:30.961Z,88.10
2023-03-18T15:27:14.830Z,90.00
2023-03-18T15:29:53.272Z,90.50
2023-03-18T15:32:26.092Z,89.90
2023-03-18T15:34:58.314Z,91.80
2023-03-18T15:37:33.872Z,92.10
2023-03-18T15:40:31.009Z,91.00
2023-03-18T15:43:11.326Z,90.50
2023-03-18T15:45:45.792Z,90.50
2023-03-18T15:48:21.746Z,91.30
2023-03-18T15:50:54.466Z,91.80
2023-03-18T15:53:33.492Z,92.10
2023-03-18T15:56:18.132Z,93.00
2023-03-18T15:58:45.356Z,93.60
2023-03-18T16:01:18.566Z,92.50
2023-03-18T16:03:46.734Z,92.50
2023-03-18T16:06:14.999Z,92.90
2023-03-18T16:08:42.062Z,93.40
2023-03-18T16:11:12.379Z,94.20
2023-03-18T16:13:40.032Z,93.60
2023-03-18T16:16:11.090Z,94.30
2023-03-18T16:18:38.109Z,94.00
2023-03-18T16:21:05.236Z,93.60
2023-03-18T16:23:32.540Z,94.00
2023-03-18T16:25:59.665Z,94.40
2023-03-18T16:28:28.624Z,92.90
2023-03-18T16:30:58.574Z,92.70
2023-03-18T16:33:26.218Z,92.50
2023-03-18T16:35:59.065Z,92.70
2023-03-18T16:38:27.275Z,93.60
2023-03-18T16:40:55.658Z,92.30
2023-03-18T16:43:31.329Z,91.80
2023-03-18T16:46:01.279Z,92.20
2023-03-18T16:48:28.625Z,92.50
2023-03-18T16:50:57.430Z,92.80
2023-03-18T16:53:30.545Z,93.50
2023-03-18T16:56:03.558Z,93.70
2023-03-18T16:58:35.421Z,94.60
2023-03-18T17:01:07.335Z,94.20
2023-03-18T17:03:35.576Z,94.00
2023-03-18T17:06:02.500Z,94.70
2023-03-18T17:08:29.696Z,95.30
2023-03-18T17:10:59.678Z,95.50
2023-03-18T17:13:33.316Z,95.30
2023-03-18T17:16:00.437Z,94.50
2023-03-18T17:18:28.090Z,94.80
2023-03-18T17:20:55.478Z,95.50
2023-03-18T17:23:25.519Z,96.40
2023-03-18T17:26:00.474Z,97.90
2023-03-18T17:28:46.959Z,98.80
2023-03-18T17:31:14.710Z,99.50
2023-03-18T17:33:42.118Z,99.60
2023-03-18T17:36:10.674Z,99.90
2023-03-18T17:38:37.774Z,99.90
2023-03-18T17:41:14.014Z,99.90
2023-03-18T17:43:42.183Z,99.90
2023-03-18T17:46:09.920Z,99.90
2023-03-18T17:48:39.028Z,99.90
2023-03-18T17:51:17.633Z,99.90
2023-03-18T17:53:48.261Z,99.90
2023-03-18T17:56:17.765Z,99.90
2023-03-18T17:58:47.481Z,99.90
2023-03-18T18:01:17.984Z,99.90
2023-03-18T18:03:45.812Z,99.90
2023-03-18T18:06:25.518Z,99.90
2023-03-18T18:08:56.620Z,99.90
2023-03-18T18:11:27.668Z,99.90
2023-03-18T18:13:58.474Z,99.90
2023-03-18T18:16:26.465Z,99.90
2023-03-18T18:18:53.806Z,99.90
2023-03-18T18:21:24.766Z,99.90
2023-03-18T18:23:52.573Z,99.90
2023-03-18T18:26:22.312Z,99.90
2023-03-18T18:28:51.786Z,99.90
2023-03-18T18:31:21.940Z,99.90
2023-03-18T18:33:50.312Z,99.90
2023-03-18T18:36:18.225Z,99.90
2023-03-18T18:38:45.618Z,99.90
2023-03-18T18:41:12.784Z,99.90
2023-03-18T18:43:39.855Z,99.90
2023-03-18T18:46:14.950Z,99.90
2023-03-18T18:48:43.805Z,99.90
2023-03-18T18:51:16.975Z,99.90
2023-03-18T18:53:44.104Z,99.90
2023-03-18T18:56:16.328Z,99.90
2023-03-18T18:58:43.762Z,99.90
2023-03-18T19:01:13.208Z,99.90
2023-03-18T19:03:41.690Z,99.90
2023-03-18T19:06:21.103Z,99.90
2023-03-18T19:08:48.149Z,99.90
2023-03-18T19:11:15.187Z,99.90
2023-03-18T19:13:42.434Z,99.90
2023-03-18T19:16:29.310Z,99.90
2023-03-18T19:18:56.646Z,99.90
2023-03-18T19:21:23.801Z,99.90
2023-03-18T19:23:51.257Z,99.90
2023-03-18T19:26:18.877Z,99.90
2023-03-18T19:28:57.062Z,99.90
2023-03-18T19:31:27.222Z,99.90
2023-03-18T19:33:54.586Z,99.90
2023-03-18T19:36:41.703Z,99.90
2023-03-18T19:39:21.044Z,99.90
2023-03-18T19:41:48.966Z,99.90
2023-03-18T19:44:18.056Z,99.90
2023-03-18T19:46:47.637Z,99.90
2023-03-18T19:49:14.700Z,99.90
2023-03-18T19:51:41.927Z,99.90
2023-03-18T19:54:34.707Z,99.90
2023-03-18T19:57:04.896Z,99.90
2023-03-18T19:59:38.697Z,99.90
2023-03-18T20:02:17.824Z,99.90
2023-03-18T20:04:44.970Z,99.90
2023-03-18T20:07:11.965Z,99.90
2023-03-18T20:09:39.543Z,99.90
2023-03-18T20:12:14.385Z,99.90
2023-03-18T20:14:41.899Z,99.90
2023-03-18T20:17:30.970Z,99.90
2023-03-18T20:19:58.284Z,99.90
2023-03-18T20:22:41.245Z,99.90
2023-03-18T20:25:15.770Z,99.90
2023-03-18T20:27:43.079Z,99.90
2023-03-18T20:30:37.879Z,99.90
2023-03-18T20:33:06.078Z,99.90
2023-03-18T20:35:42.870Z,99.90
2023-03-18T20:38:31.183Z,99.90
2023-03-18T20:40:58.794Z,99.90
2023-03-18T20:43:28.518Z,99.90
2023-03-18T20:45:58.067Z,99.90
2023-03-18T20:48:25.678Z,99.90
2023-03-18T20:50:53.374Z,99.90
2023-03-18T20:53:31.885Z,99.90
2023-03-18T20:55:58.902Z,99.90
2023-03-18T20:58:28.326Z,99.90
2023-03-18T21:00:55.528Z,99.90
2023-03-18T21:03:31.805Z,99.90
2023-03-18T21:06:01.705Z,99.90
2023-03-18T21:08:30.416Z,99.90
2023-03-18T21:11:01.358Z,99.90
2023-03-18T21:13:39.294Z,99.90
2023-03-18T21:16:10.818Z,99.90
2023-03-18T21:18:38.128Z,99.90
2023-03-18T21:21:05.285Z,99.90
2023-03-18T21:23:36.909Z,99.90
2023-03-18T21:26:03.994Z,99.90
2023-03-18T21:28:31.128Z,99.90
2023-03-18T21:30:58.823Z,99.90
2023-03-18T21:33:35.656Z,99.90
2023-03-18T21:36:02.968Z,99.90
2023-03-18T21:38:32.415Z,99.90
2023-03-18T21:41:00.918Z,99.90
2023-03-18T21:43:36.766Z,99.90
2023-03-18T21:46:05.920Z,99.90
2023-03-18T21:48:33.308Z,99.90
2023-03-18T21:51:00.345Z,99.90
2023-03-18T21:53:28.656Z,99.90
2023-03-18T21:55:56.301Z,99.90
2023-03-18T21:58:27.013Z,99.90
2023-03-18T22:00:56.186Z,99.90
2023-03-18T22:03:24.914Z,99.90
2023-03-18T22:05:52.890Z,99.90
2023-03-18T22:08:20.761Z,99.90
2023-03-18T22:10:49.126Z,99.90
2023-03-18T22:13:24.809Z,99.90
2023-03-18T22:15:53.538Z,99.90
2023-03-18T22:18:21.689Z,99.90
2023-03-18T22:20:51.339Z,99.90
2023-03-18T22:23:25.099Z,99.90
2023-03-18T22:25:57.440Z,99.90
2023-03-18T22:28:26.197Z,99.90
2023-03-18T22:30:55.943Z,99.90
2023-03-18T22:33:27.653Z,99.90
2023-03-18T22:35:55.300Z,99.90
2023-03-18T22:38:24.285Z,99.90
2023-03-18T22:40:54.399Z,99.90
2023-03-18T22:43:33.594Z,99.90
2023-03-18T22:46:02.556Z,99.90
2023-03-18T22:48:30.136Z,99.90
2023-03-18T22:50:59.538Z,99.90
2023-03-18T22:53:28.801Z,99.90
2023-03-18T22:55:56.694Z,99.90
2023-03-18T22:58:27.858Z,99.90
2023-03-18T23:00:55.615Z,99.90
2023-03-18T23:03:29.275Z,99.90
2023-03-18T23:05:57.666Z,99.90
2023-03-18T23:08:25.270Z,99.90
2023-03-18T23:10:53.692Z,99.90
2023-03-18T23:13:29.784Z,99.90
2023-03-18T23:15:58.411Z,99.90
2023-03-18T23:18:25.799Z,99.90
2023-03-18T23:20:53.053Z,99.90
2023-03-18T23:23:21.757Z,99.90
2023-03-18T23:25:50.251Z,99.90
2023-03-18T23:28:17.631Z,99.90
2023-03-18T23:30:49.486Z,99.90
2023-03-18T23:33:17.071Z,99.90
2023-03-18T23:35:45.346Z,99.90
2023-03-18T23:38:12.720Z,99.90
2023-03-18T23:40:39.948Z,99.90
2023-03-18T23:43:09.112Z,99.90
2023-03-18T23:45:38.648Z,99.90
2023-03-18T23:48:06.860Z,99.90
2023-03-18T23:50:34.052Z,99.90
2023-03-18T23:53:01.181Z,99.90
2023-03-18T23:55:34.590Z,99.90
2023-03-18T23:58:03.604Z,99.90
